sensor_id;sensor_type;location;lat;lon;timestamp;pressure;altitude;pressure_sealevel;temperature;humidity
32642;BME280;19323;56.072;9.698;2023-01-25T00:02:03;102802.00;;;25.05;37.06
32642;BME280;19323;56.072;9.698;2023-01-25T00:04:29;102789.47;;;25.06;37.21
32642;BME280;19323;56.072;9.698;2023-01-25T00:06:54;102796.53;;;25.07;37.14
32642;BME280;19323;56.072;9.698;2023-01-25T00:09:20;102800.94;;;25.08;37.01
32642;BME280;19323;56.072;9.698;2023-01-25T00:11:45;102801.78;;;25.08;37.07
32642;BME280;19323;56.072;9.698;2023-01-25T00:14:11;102793.63;;;25.10;37.11
32642;BME280;19323;56.072;9.698;2023-01-25T00:16:36;102793.75;;;25.08;37.14
32642;BME280;19323;56.072;9.698;2023-01-25T00:19:02;102782.19;;;25.08;36.91
32642;BME280;19323;56.072;9.698;2023-01-25T00:21:27;102779.50;;;25.08;37.12
32642;BME280;19323;56.072;9.698;2023-01-25T00:23:52;102785.81;;;25.07;37.12
32642;BME280;19323;56.072;9.698;2023-01-25T00:26:17;102780.44;;;25.07;37.05
32642;BME280;19323;56.072;9.698;2023-01-25T00:28:47;102781.28;;;25.07;36.92
32642;BME280;19323;56.072;9.698;2023-01-25T00:31:15;102775.09;;;25.07;37.10
32642;BME280;19323;56.072;9.698;2023-01-25T00:38:49;102760.81;;;25.06;37.01
32642;BME280;19323;56.072;9.698;2023-01-25T00:41:16;102754.63;;;25.06;36.85
32642;BME280;19323;56.072;9.698;2023-01-25T00:43:42;102749.25;;;25.06;36.90
32642;BME280;19323;56.072;9.698;2023-01-25T00:46:07;102737.66;;;25.05;36.97
32642;BME280;19323;56.072;9.698;2023-01-25T00:48:33;102733.16;;;25.06;36.97
32642;BME280;19323;56.072;9.698;2023-01-25T00:51:00;102736.78;;;25.05;36.98
32642;BME280;19323;56.072;9.698;2023-01-25T00:53:26;102732.28;;;25.05;36.98
32642;BME280;19323;56.072;9.698;2023-01-25T00:55:51;102733.16;;;25.06;36.65
32642;BME280;19323;56.072;9.698;2023-01-25T00:58:16;102737.66;;;25.05;36.95
32642;BME280;19323;56.072;9.698;2023-01-25T01:00:42;102730.47;;;25.06;36.75
32642;BME280;19323;56.072;9.698;2023-01-25T01:03:07;102719.84;;;25.04;36.96
32642;BME280;19323;56.072;9.698;2023-01-25T01:05:32;102730.47;;;25.06;36.99
32642;BME280;19323;56.072;9.698;2023-01-25T01:08:00;102718.03;;;25.05;36.74
32642;BME280;19323;56.072;9.698;2023-01-25T01:10:25;102712.66;;;25.05;36.96
32642;BME280;19323;56.072;9.698;2023-01-25T01:12:50;102709.97;;;25.05;36.55
32642;BME280;19323;56.072;9.698;2023-01-25T01:15:15;102711.72;;;25.06;36.84
32642;BME280;19323;56.072;9.698;2023-01-25T01:17:40;102699.25;;;25.05;36.81
32642;BME280;19323;56.072;9.698;2023-01-25T01:20:06;102695.72;;;25.04;36.92
32642;BME280;19323;56.072;9.698;2023-01-25T01:22:31;102705.59;;;25.04;36.58
32642;BME280;19323;56.072;9.698;2023-01-25T01:24:56;102692.19;;;25.04;36.77
32642;BME280;19323;56.072;9.698;2023-01-25T01:27:21;102692.19;;;25.04;36.93
32642;BME280;19323;56.072;9.698;2023-01-25T01:29:46;102694.00;;;25.03;37.02
32642;BME280;19323;56.072;9.698;2023-01-25T01:32:11;102690.47;;;25.03;36.83
32642;BME280;19323;56.072;9.698;2023-01-25T01:34:37;102687.78;;;25.03;36.91
32642;BME280;19323;56.072;9.698;2023-01-25T01:37:02;102688.75;;;25.02;36.69
32642;BME280;19323;56.072;9.698;2023-01-25T01:39:27;102672.69;;;25.02;36.65
32642;BME280;19323;56.072;9.698;2023-01-25T01:41:52;102675.34;;;25.02;36.72
32642;BME280;19323;56.072;9.698;2023-01-25T01:44:18;102671.78;;;25.01;36.83
32642;BME280;19323;56.072;9.698;2023-01-25T01:46:45;102670.94;;;25.01;36.77
32642;BME280;19323;56.072;9.698;2023-01-25T01:49:15;102669.13;;;25.01;36.77
32642;BME280;19323;56.072;9.698;2023-01-25T01:51:59;102669.25;;;25.00;36.93
32642;BME280;19323;56.072;9.698;2023-01-25T01:54:30;102662.91;;;25.01;36.91
32642;BME280;19323;56.072;9.698;2023-01-25T01:59:30;102654.88;;;25.01;36.89
32642;BME280;19323;56.072;9.698;2023-01-25T02:01:57;102655.84;;;25.00;36.76
32642;BME280;19323;56.072;9.698;2023-01-25T02:04:23;102651.44;;;24.99;36.60
32642;BME280;19323;56.072;9.698;2023-01-25T02:06:53;102646.94;;;24.99;36.56
32642;BME280;19323;56.072;9.698;2023-01-25T02:09:20;102648.66;;;25.00;36.65
32642;BME280;19323;56.072;9.698;2023-01-25T02:11:46;102643.38;;;24.99;36.74
32642;BME280;19323;56.072;9.698;2023-01-25T02:14:13;102640.72;;;24.99;36.62
32642;BME280;19323;56.072;9.698;2023-01-25T02:16:38;102641.59;;;24.99;36.66
32642;BME280;19323;56.072;9.698;2023-01-25T02:19:05;102639.84;;;24.98;36.58
32642;BME280;19323;56.072;9.698;2023-01-25T02:21:32;102637.19;;;24.98;36.52
32642;BME280;19323;56.072;9.698;2023-01-25T02:24:06;102639.84;;;24.98;36.66
32642;BME280;19323;56.072;9.698;2023-01-25T02:26:33;102630.97;;;24.98;36.51
32642;BME280;19323;56.072;9.698;2023-01-25T02:29:00;102635.34;;;24.99;36.58
32642;BME280;19323;56.072;9.698;2023-01-25T02:31:27;102630.97;;;24.98;36.59
32642;BME280;19323;56.072;9.698;2023-01-25T02:33:52;102625.59;;;24.98;36.57
32642;BME280;19323;56.072;9.698;2023-01-25T02:36:27;102624.75;;;24.97;36.65
32642;BME280;19323;56.072;9.698;2023-01-25T02:38:53;102627.44;;;24.97;36.61
32642;BME280;19323;56.072;9.698;2023-01-25T02:41:26;102622.94;;;24.98;36.57
32642;BME280;19323;56.072;9.698;2023-01-25T02:43:51;102615.84;;;24.97;36.58
32642;BME280;19323;56.072;9.698;2023-01-25T02:46:20;102620.25;;;24.98;36.65
32642;BME280;19323;56.072;9.698;2023-01-25T02:48:46;102613.06;;;24.98;36.58
32642;BME280;19323;56.072;9.698;2023-01-25T02:51:11;102611.34;;;24.97;36.55
32642;BME280;19323;56.072;9.698;2023-01-25T02:53:36;102614.03;;;24.97;36.70
32642;BME280;19323;56.072;9.698;2023-01-25T02:56:02;102610.47;;;24.97;36.45
32642;BME280;19323;56.072;9.698;2023-01-25T02:58:27;102609.63;;;24.96;36.61
32642;BME280;19323;56.072;9.698;2023-01-25T03:00:52;102600.63;;;24.97;36.57
32642;BME280;19323;56.072;9.698;2023-01-25T03:03:19;102598.91;;;24.96;36.56
32642;BME280;19323;56.072;9.698;2023-01-25T03:05:44;102603.31;;;24.97;36.56
32642;BME280;19323;56.072;9.698;2023-01-25T03:08:09;102598.91;;;24.96;36.65
32642;BME280;19323;56.072;9.698;2023-01-25T03:10:35;102599.66;;;24.98;36.74
32642;BME280;19323;56.072;9.698;2023-01-25T03:13:00;102600.63;;;24.97;36.67
32642;BME280;19323;56.072;9.698;2023-01-25T03:15:25;102595.28;;;24.97;36.55
32642;BME280;19323;56.072;9.698;2023-01-25T03:17:50;102585.50;;;24.96;36.43
32642;BME280;19323;56.072;9.698;2023-01-25T03:20:15;102583.66;;;24.97;36.50
32642;BME280;19323;56.072;9.698;2023-01-25T03:22:40;102582.91;;;24.95;36.60
32642;BME280;19323;56.072;9.698;2023-01-25T03:25:06;102575.75;;;24.95;36.43
32642;BME280;19323;56.072;9.698;2023-01-25T03:27:31;102571.25;;;24.96;36.54
32642;BME280;19323;56.072;9.698;2023-01-25T03:29:56;102576.59;;;24.96;36.46
32642;BME280;19323;56.072;9.698;2023-01-25T03:32:22;102568.47;;;24.97;36.46
32642;BME280;19323;56.072;9.698;2023-01-25T03:34:47;102570.41;;;24.95;36.49
32642;BME280;19323;56.072;9.698;2023-01-25T03:37:12;102565.03;;;24.95;36.41
32642;BME280;19323;56.072;9.698;2023-01-25T03:39:37;102558.78;;;24.95;36.42
32642;BME280;19323;56.072;9.698;2023-01-25T03:42:03;102553.44;;;24.95;36.48
32642;BME280;19323;56.072;9.698;2023-01-25T03:44:28;102548.94;;;24.95;36.46
32642;BME280;19323;56.072;9.698;2023-01-25T03:46:53;102542.72;;;24.95;36.52
32642;BME280;19323;56.072;9.698;2023-01-25T03:49:18;102553.44;;;24.95;36.34
32642;BME280;19323;56.072;9.698;2023-01-25T03:51:43;102552.56;;;24.94;36.28
32642;BME280;19323;56.072;9.698;2023-01-25T03:54:08;102553.44;;;24.95;36.25
32642;BME280;19323;56.072;9.698;2023-01-25T03:56:34;102547.22;;;24.94;36.30
32642;BME280;19323;56.072;9.698;2023-01-25T03:58:59;102540.16;;;24.93;36.49
32642;BME280;19323;56.072;9.698;2023-01-25T04:01:24;102533.94;;;24.93;36.41
32642;BME280;19323;56.072;9.698;2023-01-25T04:03:50;102532.97;;;24.94;36.43
32642;BME280;19323;56.072;9.698;2023-01-25T04:06:15;102529.44;;;24.93;36.26
32642;BME280;19323;56.072;9.698;2023-01-25T04:08:40;102529.44;;;24.93;36.31
32642;BME280;19323;56.072;9.698;2023-01-25T04:11:06;102532.13;;;24.93;36.45
32642;BME280;19323;56.072;9.698;2023-01-25T04:13:32;102538.31;;;24.94;36.28
32642;BME280;19323;56.072;9.698;2023-01-25T04:16:00;102528.59;;;24.93;36.54
32642;BME280;19323;56.072;9.698;2023-01-25T04:18:25;102524.19;;;24.92;36.56
32642;BME280;19323;56.072;9.698;2023-01-25T04:20:51;102520.56;;;24.93;36.53
32642;BME280;19323;56.072;9.698;2023-01-25T04:23:17;102510.78;;;24.92;36.69
32642;BME280;19323;56.072;9.698;2023-01-25T04:25:42;102518.81;;;24.92;36.69
32642;BME280;19323;56.072;9.698;2023-01-25T04:28:07;102513.56;;;24.90;36.67
32642;BME280;19323;56.072;9.698;2023-01-25T04:30:33;102506.50;;;24.89;36.86
32642;BME280;19323;56.072;9.698;2023-01-25T04:33:04;102524.28;;;24.90;36.68
32642;BME280;19323;56.072;9.698;2023-01-25T04:35:29;102515.41;;;24.90;36.96
32642;BME280;19323;56.072;9.698;2023-01-25T04:37:55;102508.19;;;24.90;36.78
32642;BME280;19323;56.072;9.698;2023-01-25T04:40:21;102502.84;;;24.90;36.98
32642;BME280;19323;56.072;9.698;2023-01-25T04:42:46;102492.25;;;24.88;37.02
32642;BME280;19323;56.072;9.698;2023-01-25T04:45:11;102485.91;;;24.90;37.06
32642;BME280;19323;56.072;9.698;2023-01-25T04:47:36;102488.59;;;24.90;37.15
32642;BME280;19323;56.072;9.698;2023-01-25T04:50:01;102495.69;;;24.91;37.08
32642;BME280;19323;56.072;9.698;2023-01-25T04:52:27;102487.75;;;24.89;37.24
32642;BME280;19323;56.072;9.698;2023-01-25T04:54:52;102490.31;;;24.91;37.08
32642;BME280;19323;56.072;9.698;2023-01-25T04:57:17;102483.22;;;24.90;37.34
32642;BME280;19323;56.072;9.698;2023-01-25T04:59:42;102479.59;;;24.91;37.16
32642;BME280;19323;56.072;9.698;2023-01-25T05:02:07;102465.31;;;24.90;37.31
32642;BME280;19323;56.072;9.698;2023-01-25T05:04:32;102474.22;;;24.91;37.15
32642;BME280;19323;56.072;9.698;2023-01-25T05:06:57;102484.97;;;24.91;37.16
32642;BME280;19323;56.072;9.698;2023-01-25T05:09:23;102485.81;;;24.91;37.33
32642;BME280;19323;56.072;9.698;2023-01-25T05:11:48;102493.00;;;24.91;37.28
32642;BME280;19323;56.072;9.698;2023-01-25T05:14:13;102486.66;;;24.92;37.31
32642;BME280;19323;56.072;9.698;2023-01-25T05:16:38;102475.09;;;24.91;37.24
32642;BME280;19323;56.072;9.698;2023-01-25T05:19:03;102473.34;;;24.90;37.28
32642;BME280;19323;56.072;9.698;2023-01-25T05:21:28;102466.19;;;24.91;37.36
32642;BME280;19323;56.072;9.698;2023-01-25T05:24:12;102459.97;;;24.90;37.34
32642;BME280;19323;56.072;9.698;2023-01-25T05:26:37;102461.69;;;24.91;37.10
32642;BME280;19323;56.072;9.698;2023-01-25T05:29:21;102468.13;;;24.88;37.21
32642;BME280;19323;56.072;9.698;2023-01-25T05:31:46;102460.94;;;24.89;37.41
32642;BME280;19323;56.072;9.698;2023-01-25T05:34:11;102456.53;;;24.88;37.24
32642;BME280;19323;56.072;9.698;2023-01-25T05:36:36;102448.50;;;24.88;37.38
32642;BME280;19323;56.072;9.698;2023-01-25T05:39:03;102450.44;;;24.86;37.28
32642;BME280;19323;56.072;9.698;2023-01-25T05:41:29;102442.28;;;24.87;37.55
32642;BME280;19323;56.072;9.698;2023-01-25T05:43:54;102443.25;;;24.86;37.26
32642;BME280;19323;56.072;9.698;2023-01-25T05:46:19;102437.91;;;24.86;37.28
32642;BME280;19323;56.072;9.698;2023-01-25T05:48:46;102431.66;;;24.86;37.37
32642;BME280;19323;56.072;9.698;2023-01-25T05:51:11;102422.66;;;24.87;37.42
32642;BME280;19323;56.072;9.698;2023-01-25T05:53:36;102422.78;;;24.85;37.55
32642;BME280;19323;56.072;9.698;2023-01-25T05:56:05;102418.41;;;24.84;37.48
32642;BME280;19323;56.072;9.698;2023-01-25T05:58:30;102413.03;;;24.84;37.40
32642;BME280;19323;56.072;9.698;2023-01-25T06:00:58;102414.88;;;24.84;37.52
32642;BME280;19323;56.072;9.698;2023-01-25T06:03:23;102412.19;;;24.84;37.43
32642;BME280;19323;56.072;9.698;2023-01-25T06:05:53;102404.25;;;24.82;37.56
32642;BME280;19323;56.072;9.698;2023-01-25T06:08:18;102413.03;;;24.84;37.32
32642;BME280;19323;56.072;9.698;2023-01-25T06:10:43;102413.03;;;24.84;37.60
32642;BME280;19323;56.072;9.698;2023-01-25T06:13:08;102414.72;;;24.85;37.38
32642;BME280;19323;56.072;9.698;2023-01-25T06:15:33;102409.38;;;24.85;37.43
32642;BME280;19323;56.072;9.698;2023-01-25T06:17:58;102402.31;;;24.84;37.45
32642;BME280;19323;56.072;9.698;2023-01-25T06:20:24;102396.13;;;24.84;37.45
32642;BME280;19323;56.072;9.698;2023-01-25T06:22:49;102385.25;;;24.85;37.44
32642;BME280;19323;56.072;9.698;2023-01-25T06:25:15;102380.03;;;24.84;37.46
32642;BME280;19323;56.072;9.698;2023-01-25T06:27:40;102383.66;;;24.83;37.50
32642;BME280;19323;56.072;9.698;2023-01-25T06:30:05;102370.25;;;24.83;37.52
32642;BME280;19323;56.072;9.698;2023-01-25T06:32:31;102366.75;;;24.82;37.52
32642;BME280;19323;56.072;9.698;2023-01-25T06:34:57;102356.03;;;24.82;37.57
32642;BME280;19323;56.072;9.698;2023-01-25T06:37:22;102351.59;;;24.81;37.64
32642;BME280;19323;56.072;9.698;2023-01-25T06:39:47;102351.59;;;24.81;37.87
32642;BME280;19323;56.072;9.698;2023-01-25T06:42:12;102344.56;;;24.80;37.68
32642;BME280;19323;56.072;9.698;2023-01-25T06:44:38;102343.72;;;24.80;37.79
32642;BME280;19323;56.072;9.698;2023-01-25T06:47:03;102353.69;;;24.78;37.71
32642;BME280;19323;56.072;9.698;2023-01-25T06:49:28;102353.69;;;24.78;37.65
32642;BME280;19323;56.072;9.698;2023-01-25T06:51:53;102350.03;;;24.79;37.71
32642;BME280;19323;56.072;9.698;2023-01-25T06:54:18;102340.28;;;24.78;37.75
32642;BME280;19323;56.072;9.698;2023-01-25T06:56:43;102338.47;;;24.78;37.73
32642;BME280;19323;56.072;9.698;2023-01-25T06:59:09;102345.50;;;24.79;37.47
32642;BME280;19323;56.072;9.698;2023-01-25T07:01:34;102333.19;;;24.77;37.43
32642;BME280;19323;56.072;9.698;2023-01-25T07:03:59;102336.72;;;24.77;37.71
32642;BME280;19323;56.072;9.698;2023-01-25T07:06:25;102323.34;;;24.77;37.59
32642;BME280;19323;56.072;9.698;2023-01-25T07:08:50;102325.91;;;24.79;37.43
32642;BME280;19323;56.072;9.698;2023-01-25T07:11:15;102326.00;;;24.77;37.71
32642;BME280;19323;56.072;9.698;2023-01-25T07:13:43;102326.00;;;24.77;37.38
32642;BME280;19323;56.072;9.698;2023-01-25T07:16:10;102331.38;;;24.77;37.38
32642;BME280;19323;56.072;9.698;2023-01-25T07:18:36;102328.84;;;24.76;37.49
32642;BME280;19323;56.072;9.698;2023-01-25T07:21:05;102322.63;;;24.75;37.32
32642;BME280;19323;56.072;9.698;2023-01-25T07:23:31;102326.16;;;24.76;37.31
32642;BME280;19323;56.072;9.698;2023-01-25T07:25:56;102319.94;;;24.75;37.45
32642;BME280;19323;56.072;9.698;2023-01-25T07:28:22;102301.91;;;24.77;37.52
32642;BME280;19323;56.072;9.698;2023-01-25T07:30:47;102297.53;;;24.76;37.40
32642;BME280;19323;56.072;9.698;2023-01-25T07:33:13;102294.84;;;24.76;37.37
32642;BME280;19323;56.072;9.698;2023-01-25T07:35:38;102292.16;;;24.76;37.24
32642;BME280;19323;56.072;9.698;2023-01-25T07:38:03;102297.53;;;24.76;37.24
32642;BME280;19323;56.072;9.698;2023-01-25T07:40:28;102297.53;;;24.76;37.15
32642;BME280;19323;56.072;9.698;2023-01-25T07:42:54;102289.47;;;24.76;37.16
32642;BME280;19323;56.072;9.698;2023-01-25T07:45:19;102291.19;;;24.77;37.30
32642;BME280;19323;56.072;9.698;2023-01-25T07:47:44;102291.19;;;24.77;37.20
32642;BME280;19323;56.072;9.698;2023-01-25T07:50:10;102281.34;;;24.78;37.07
32642;BME280;19323;56.072;9.698;2023-01-25T07:52:35;102286.69;;;24.78;36.99
32642;BME280;19323;56.072;9.698;2023-01-25T07:55:00;102291.91;;;24.79;37.01
32642;BME280;19323;56.072;9.698;2023-01-25T07:57:25;102291.91;;;24.79;37.07
32642;BME280;19323;56.072;9.698;2023-01-25T07:59:52;102296.31;;;24.80;37.05
32642;BME280;19323;56.072;9.698;2023-01-25T08:02:17;102292.53;;;24.83;36.99
32642;BME280;19323;56.072;9.698;2023-01-25T08:04:42;102285.50;;;24.82;36.96
32642;BME280;19323;56.072;9.698;2023-01-25T08:07:09;102282.91;;;24.80;36.92
32642;BME280;19323;56.072;9.698;2023-01-25T08:09:34;102286.44;;;24.81;37.08
32642;BME280;19323;56.072;9.698;2023-01-25T08:11:59;102281.72;;;24.84;37.01
32642;BME280;19323;56.072;9.698;2023-01-25T08:14:24;102279.03;;;24.84;37.04
32642;BME280;19323;56.072;9.698;2023-01-25T08:16:50;102273.78;;;24.83;36.82
32642;BME280;19323;56.072;9.698;2023-01-25T08:19:15;102272.19;;;24.80;36.85
32642;BME280;19323;56.072;9.698;2023-01-25T08:21:40;102268.91;;;24.77;36.83
32642;BME280;19323;56.072;9.698;2023-01-25T08:24:06;102265.63;;;24.73;36.96
32642;BME280;19323;56.072;9.698;2023-01-25T08:26:31;102262.19;;;24.71;36.89
32642;BME280;19323;56.072;9.698;2023-01-25T08:28:57;102264.13;;;24.69;36.98
32642;BME280;19323;56.072;9.698;2023-01-25T08:31:23;102262.56;;;24.66;36.83
32642;BME280;19323;56.072;9.698;2023-01-25T08:33:49;102259.97;;;24.65;36.82
32642;BME280;19323;56.072;9.698;2023-01-25T08:36:15;102256.56;;;24.63;36.92
32642;BME280;19323;56.072;9.698;2023-01-25T08:38:42;102253.03;;;24.62;36.99
32642;BME280;19323;56.072;9.698;2023-01-25T08:41:11;102253.13;;;24.61;36.91
32642;BME280;19323;56.072;9.698;2023-01-25T08:43:36;102247.88;;;24.59;37.16
32642;BME280;19323;56.072;9.698;2023-01-25T08:46:02;102244.38;;;24.59;37.00
32642;BME280;19323;56.072;9.698;2023-01-25T08:48:27;102240.00;;;24.58;36.98
32642;BME280;19323;56.072;9.698;2023-01-25T08:50:52;102240.94;;;24.57;37.02
32642;BME280;19323;56.072;9.698;2023-01-25T08:53:17;102241.94;;;24.56;37.08
32642;BME280;19323;56.072;9.698;2023-01-25T08:55:43;102238.38;;;24.55;36.76
32642;BME280;19323;56.072;9.698;2023-01-25T08:58:11;102231.22;;;24.56;36.91
32642;BME280;19323;56.072;9.698;2023-01-25T09:00:37;102217.81;;;24.56;36.98
32642;BME280;19323;56.072;9.698;2023-01-25T09:03:03;102210.75;;;24.55;36.96
32642;BME280;19323;56.072;9.698;2023-01-25T09:05:28;102201.84;;;24.54;37.09
32642;BME280;19323;56.072;9.698;2023-01-25T09:07:53;102189.41;;;24.53;37.36
32642;BME280;19323;56.072;9.698;2023-01-25T09:10:18;102188.47;;;24.54;37.22
32642;BME280;19323;56.072;9.698;2023-01-25T09:12:44;102184.94;;;24.54;37.52
32642;BME280;19323;56.072;9.698;2023-01-25T09:15:09;102177.84;;;24.53;37.56
32642;BME280;19323;56.072;9.698;2023-01-25T09:17:34;102172.50;;;24.53;37.60
32642;BME280;19323;56.072;9.698;2023-01-25T09:20:03;102171.66;;;24.52;37.71
32642;BME280;19323;56.072;9.698;2023-01-25T09:22:28;102173.50;;;24.52;37.95
32642;BME280;19323;56.072;9.698;2023-01-25T09:24:54;102169.81;;;24.53;37.99
32642;BME280;19323;56.072;9.698;2023-01-25T09:27:20;102168.97;;;24.52;38.13
32642;BME280;19323;56.072;9.698;2023-01-25T09:29:45;102159.25;;;24.51;38.08
32642;BME280;19323;56.072;9.698;2023-01-25T09:32:10;102160.94;;;24.52;38.04
32642;BME280;19323;56.072;9.698;2023-01-25T09:34:35;102150.34;;;24.51;38.08
32642;BME280;19323;56.072;9.698;2023-01-25T09:37:01;102154.00;;;24.50;38.14
32642;BME280;19323;56.072;9.698;2023-01-25T09:39:26;102149.50;;;24.50;38.06
32642;BME280;19323;56.072;9.698;2023-01-25T09:44:23;102136.22;;;24.49;38.35
32642;BME280;19323;56.072;9.698;2023-01-25T09:46:53;102128.16;;;24.49;38.42
32642;BME280;19323;56.072;9.698;2023-01-25T09:51:52;102121.97;;;24.48;38.31
32642;BME280;19323;56.072;9.698;2023-01-25T09:54:21;102115.72;;;24.47;38.29
32642;BME280;19323;56.072;9.698;2023-01-25T09:56:47;102116.63;;;24.48;38.03
32642;BME280;19323;56.072;9.698;2023-01-25T09:59:15;102120.13;;;24.49;38.30
32642;BME280;19323;56.072;9.698;2023-01-25T10:04:36;102121.09;;;24.47;38.06
32642;BME280;19323;56.072;9.698;2023-01-25T10:07:11;102118.41;;;24.47;38.24
32642;BME280;19323;56.072;9.698;2023-01-25T10:12:04;102112.09;;;24.49;38.16
32642;BME280;19323;56.072;9.698;2023-01-25T10:14:34;102111.25;;;24.48;38.07
32642;BME280;19323;56.072;9.698;2023-01-25T10:17:02;102102.25;;;24.49;38.18
32642;BME280;19323;56.072;9.698;2023-01-25T10:19:37;102105.78;;;24.50;38.30
32642;BME280;19323;56.072;9.698;2023-01-25T10:22:07;102104.94;;;24.49;38.31
32642;BME280;19323;56.072;9.698;2023-01-25T10:24:49;102112.00;;;24.50;38.17
32642;BME280;19323;56.072;9.698;2023-01-25T10:27:22;102113.81;;;24.50;38.14
32642;BME280;19323;56.072;9.698;2023-01-25T10:29:51;102100.44;;;24.50;38.31
32642;BME280;19323;56.072;9.698;2023-01-25T10:32:29;102099.44;;;24.51;38.41
32642;BME280;19323;56.072;9.698;2023-01-25T10:34:56;102085.22;;;24.50;38.27
32642;BME280;19323;56.072;9.698;2023-01-25T10:37:30;102086.06;;;24.51;38.25
32642;BME280;19323;56.072;9.698;2023-01-25T10:40:09;102074.59;;;24.49;38.34
32642;BME280;19323;56.072;9.698;2023-01-25T10:42:46;102079.97;;;24.49;38.31
32642;BME280;19323;56.072;9.698;2023-01-25T10:45:13;102072.88;;;24.47;38.36
32642;BME280;19323;56.072;9.698;2023-01-25T10:47:43;102078.25;;;24.47;38.38
32642;BME280;19323;56.072;9.698;2023-01-25T10:50:11;102071.16;;;24.46;38.27
32642;BME280;19323;56.072;9.698;2023-01-25T10:52:58;102072.03;;;24.47;38.29
32642;BME280;19323;56.072;9.698;2023-01-25T10:55:23;102067.63;;;24.46;38.13
32642;BME280;19323;56.072;9.698;2023-01-25T10:57:50;102059.59;;;24.46;38.23
32642;BME280;19323;56.072;9.698;2023-01-25T11:00:39;102054.25;;;24.46;38.04
32642;BME280;19323;56.072;9.698;2023-01-25T11:03:04;102048.88;;;24.46;37.97
32642;BME280;19323;56.072;9.698;2023-01-25T11:05:34;102041.84;;;24.45;38.18
32642;BME280;19323;56.072;9.698;2023-01-25T11:10:43;102021.25;;;24.45;38.12
32642;BME280;19323;56.072;9.698;2023-01-25T11:15:38;102001.66;;;24.45;38.19
32642;BME280;19323;56.072;9.698;2023-01-25T11:18:04;102001.66;;;24.45;38.20
32642;BME280;19323;56.072;9.698;2023-01-25T11:20:30;101992.66;;;24.46;38.05
32642;BME280;19323;56.072;9.698;2023-01-25T11:22:56;101989.97;;;24.46;37.94
32642;BME280;19323;56.072;9.698;2023-01-25T11:25:25;101977.56;;;24.45;38.09
32642;BME280;19323;56.072;9.698;2023-01-25T11:27:50;101978.41;;;24.45;38.01
32642;BME280;19323;56.072;9.698;2023-01-25T11:30:16;101974.75;;;24.46;38.04
32642;BME280;19323;56.072;9.698;2023-01-25T11:32:44;101959.56;;;24.47;38.01
32642;BME280;19323;56.072;9.698;2023-01-25T11:35:11;101956.00;;;24.46;37.74
32642;BME280;19323;56.072;9.698;2023-01-25T11:37:43;101940.91;;;24.45;37.84
32642;BME280;19323;56.072;9.698;2023-01-25T11:40:12;101947.97;;;24.46;38.06
32642;BME280;19323;56.072;9.698;2023-01-25T11:53:40;101928.47;;;24.44;37.76
32642;BME280;19323;56.072;9.698;2023-01-25T11:56:17;101911.56;;;24.44;37.93
32642;BME280;19323;56.072;9.698;2023-01-25T12:01:16;101909.72;;;24.44;37.88
32642;BME280;19323;56.072;9.698;2023-01-25T12:03:52;101901.69;;;24.44;37.93
32642;BME280;19323;56.072;9.698;2023-01-25T12:06:27;101903.53;;;24.44;37.87
32642;BME280;19323;56.072;9.698;2023-01-25T12:11:42;101894.66;;;24.43;38.08
32642;BME280;19323;56.072;9.698;2023-01-25T12:16:42;101882.25;;;24.42;37.96
32642;BME280;19323;56.072;9.698;2023-01-25T12:21:41;101882.25;;;24.42;38.04
32642;BME280;19323;56.072;9.698;2023-01-25T12:31:54;101852.91;;;24.41;37.94
32642;BME280;19323;56.072;9.698;2023-01-25T12:34:21;101854.75;;;24.40;37.84
32642;BME280;19323;56.072;9.698;2023-01-25T12:36:50;101847.56;;;24.41;37.87
32642;BME280;19323;56.072;9.698;2023-01-25T12:39:22;101852.91;;;24.41;37.80
32642;BME280;19323;56.072;9.698;2023-01-25T12:41:51;101851.09;;;24.41;37.88
32642;BME280;19323;56.072;9.698;2023-01-25T12:44:23;101846.56;;;24.42;37.98
32642;BME280;19323;56.072;9.698;2023-01-25T12:49:36;101851.09;;;24.41;37.88
32642;BME280;19323;56.072;9.698;2023-01-25T12:52:15;101845.72;;;24.41;37.94
32642;BME280;19323;56.072;9.698;2023-01-25T12:54:43;101837.69;;;24.41;37.88
32642;BME280;19323;56.072;9.698;2023-01-25T12:57:18;101835.84;;;24.42;37.90
32642;BME280;19323;56.072;9.698;2023-01-25T12:59:49;101835.00;;;24.41;38.02
32642;BME280;19323;56.072;9.698;2023-01-25T13:05:09;101826.97;;;24.41;37.90
32642;BME280;19323;56.072;9.698;2023-01-25T13:07:42;101823.47;;;24.41;37.79
32642;BME280;19323;56.072;9.698;2023-01-25T13:10:15;101812.75;;;24.41;37.79
32642;BME280;19323;56.072;9.698;2023-01-25T13:12:49;101815.44;;;24.41;37.75
32642;BME280;19323;56.072;9.698;2023-01-25T13:15:34;101814.59;;;24.40;37.87
32642;BME280;19323;56.072;9.698;2023-01-25T13:18:00;101809.22;;;24.40;37.94
32642;BME280;19323;56.072;9.698;2023-01-25T13:23:02;101805.56;;;24.41;37.73
32642;BME280;19323;56.072;9.698;2023-01-25T13:25:27;101803.88;;;24.40;37.67
32642;BME280;19323;56.072;9.698;2023-01-25T13:28:01;101798.50;;;24.40;37.89
32642;BME280;19323;56.072;9.698;2023-01-25T13:30:38;101800.19;;;24.41;37.81
32642;BME280;19323;56.072;9.698;2023-01-25T13:33:14;101797.53;;;24.41;37.86
32642;BME280;19323;56.072;9.698;2023-01-25T13:35:55;101792.16;;;24.41;37.90
32642;BME280;19323;56.072;9.698;2023-01-25T13:38:23;101790.34;;;24.42;37.85
32642;BME280;19323;56.072;9.698;2023-01-25T13:43:53;101783.28;;;24.41;37.69
32642;BME280;19323;56.072;9.698;2023-01-25T13:46:20;101783.28;;;24.41;37.91
32642;BME280;19323;56.072;9.698;2023-01-25T13:48:50;101768.06;;;24.41;37.82
32642;BME280;19323;56.072;9.698;2023-01-25T13:51:16;101762.72;;;24.41;38.02
32642;BME280;19323;56.072;9.698;2023-01-25T13:53:42;101757.34;;;24.41;37.94